sensor_id;sensor_type;location;lat;lon;timestamp;pressure;altitude;pressure_sealevel;temperature;humidity
76794;BME280;65745;50.278;18.192;2023-11-19T00:02:20;100287.79;;;-0.44;90.09
76794;BME280;65745;50.278;18.192;2023-11-19T00:04:52;100287.95;;;-0.45;89.93
76794;BME280;65745;50.278;18.192;2023-11-19T00:07:25;100281.80;;;-0.43;89.54
76794;BME280;65745;50.278;18.192;2023-11-19T00:10:07;100274.09;;;-0.41;89.61
76794;BME280;65745;50.278;18.192;2023-11-19T00:12:42;100272.08;;;-0.39;89.66
76794;BME280;65745;50.278;18.192;2023-11-19T00:15:16;100278.93;;;-0.37;89.56
76794;BME280;65745;50.278;18.192;2023-11-19T00:17:49;100276.13;;;-0.39;89.62
76794;BME280;65745;50.278;18.192;2023-11-19T00:20:21;100276.59;;;-0.34;89.61
76794;BME280;65745;50.278;18.192;2023-11-19T00:22:53;100281.33;;;-0.42;90.01
76794;BME280;65745;50.278;18.192;2023-11-19T00:25:25;100285.84;;;-0.50;90.65
76794;BME280;65745;50.278;18.192;2023-11-19T00:27:58;100294.36;;;-0.49;90.64
76794;BME280;65745;50.278;18.192;2023-11-19T00:30:30;100297.23;;;-0.42;90.08
76794;BME280;65745;50.278;18.192;2023-11-19T00:33:03;100296.19;;;-0.40;90.08
76794;BME280;65745;50.278;18.192;2023-11-19T00:35:35;100286.73;;;-0.39;90.10
76794;BME280;65745;50.278;18.192;2023-11-19T00:38:08;100279.13;;;-0.40;90.42
76794;BME280;65745;50.278;18.192;2023-11-19T00:40:40;100269.84;;;-0.37;90.37
76794;BME280;65745;50.278;18.192;2023-11-19T00:43:12;100268.11;;;-0.40;90.45
76794;BME280;65745;50.278;18.192;2023-11-19T00:45:44;100263.05;;;-0.34;90.19
76794;BME280;65745;50.278;18.192;2023-11-19T00:48:16;100252.93;;;-0.34;90.17
76794;BME280;65745;50.278;18.192;2023-11-19T00:50:49;100250.58;;;-0.26;89.92
76794;BME280;65745;50.278;18.192;2023-11-19T00:53:21;100249.56;;;-0.24;90.01
76794;BME280;65745;50.278;18.192;2023-11-19T00:55:52;100249.65;;;-0.40;90.43
76794;BME280;65745;50.278;18.192;2023-11-19T00:58:25;100249.41;;;-0.38;90.57
76794;BME280;65745;50.278;18.192;2023-11-19T01:00:57;100246.05;;;-0.38;90.42
76794;BME280;65745;50.278;18.192;2023-11-19T01:03:30;100244.30;;;-0.47;90.68
76794;BME280;65745;50.278;18.192;2023-11-19T01:06:05;100236.89;;;-0.51;91.06
76794;BME280;65745;50.278;18.192;2023-11-19T01:08:37;100232.49;;;-0.46;90.66
76794;BME280;65745;50.278;18.192;2023-11-19T01:11:11;100229.80;;;-0.43;91.03
76794;BME280;65745;50.278;18.192;2023-11-19T01:13:53;100231.27;;;-0.47;90.90
76794;BME280;65745;50.278;18.192;2023-11-19T01:16:25;100215.02;;;-0.49;90.93
76794;BME280;65745;50.278;18.192;2023-11-19T01:18:57;100200.14;;;-0.47;91.14
76794;BME280;65745;50.278;18.192;2023-11-19T01:21:47;100196.92;;;-0.47;90.92
76794;BME280;65745;50.278;18.192;2023-11-19T01:24:19;100190.40;;;-0.48;91.29
76794;BME280;65745;50.278;18.192;2023-11-19T01:26:51;100194.95;;;-0.43;91.05
76794;BME280;65745;50.278;18.192;2023-11-19T01:29:24;100192.16;;;-0.42;90.99
76794;BME280;65745;50.278;18.192;2023-11-19T01:31:56;100192.95;;;-0.43;91.04
76794;BME280;65745;50.278;18.192;2023-11-19T01:34:28;100189.48;;;-0.41;90.77
76794;BME280;65745;50.278;18.192;2023-11-19T01:37:00;100170.98;;;-0.37;90.84
76794;BME280;65745;50.278;18.192;2023-11-19T01:39:32;100165.63;;;-0.34;90.70
76794;BME280;65745;50.278;18.192;2023-11-19T01:42:05;100157.27;;;-0.35;90.69
76794;BME280;65745;50.278;18.192;2023-11-19T01:44:37;100154.85;;;-0.40;90.74
76794;BME280;65745;50.278;18.192;2023-11-19T01:47:09;100154.08;;;-0.45;90.97
76794;BME280;65745;50.278;18.192;2023-11-19T01:49:41;100147.70;;;-0.47;90.89
76794;BME280;65745;50.278;18.192;2023-11-19T01:52:13;100129.04;;;-0.50;91.14
76794;BME280;65745;50.278;18.192;2023-11-19T01:54:46;100110.93;;;-0.53;91.11
76794;BME280;65745;50.278;18.192;2023-11-19T01:57:18;100106.30;;;-0.58;91.88
76794;BME280;65745;50.278;18.192;2023-11-19T01:59:51;100099.83;;;-0.64;91.96
76794;BME280;65745;50.278;18.192;2023-11-19T02:02:24;100093.48;;;-0.70;92.14
76794;BME280;65745;50.278;18.192;2023-11-19T02:04:58;100094.78;;;-0.76;92.68
76794;BME280;65745;50.278;18.192;2023-11-19T02:07:31;100093.45;;;-0.76;92.74
76794;BME280;65745;50.278;18.192;2023-11-19T02:10:04;100091.02;;;-0.79;92.94
76794;BME280;65745;50.278;18.192;2023-11-19T02:12:36;100086.39;;;-0.82;93.37
76794;BME280;65745;50.278;18.192;2023-11-19T02:15:09;100074.60;;;-0.82;93.69
76794;BME280;65745;50.278;18.192;2023-11-19T02:17:41;100071.70;;;-0.85;93.71
76794;BME280;65745;50.278;18.192;2023-11-19T02:20:14;100071.90;;;-0.87;93.62
76794;BME280;65745;50.278;18.192;2023-11-19T02:22:46;100070.67;;;-0.90;93.71
76794;BME280;65745;50.278;18.192;2023-11-19T02:25:24;100061.10;;;-0.92;93.31
76794;BME280;65745;50.278;18.192;2023-11-19T02:28:01;100049.16;;;-0.98;93.42
76794;BME280;65745;50.278;18.192;2023-11-19T02:30:33;100040.35;;;-1.06;93.64
76794;BME280;65745;50.278;18.192;2023-11-19T02:33:05;100030.96;;;-1.07;93.92
76794;BME280;65745;50.278;18.192;2023-11-19T02:35:37;100013.38;;;-1.05;93.75
76794;BME280;65745;50.278;18.192;2023-11-19T02:38:11;100010.84;;;-1.05;93.69
76794;BME280;65745;50.278;18.192;2023-11-19T02:40:44;100017.35;;;-1.04;93.44
76794;BME280;65745;50.278;18.192;2023-11-19T02:43:16;100016.45;;;-1.05;93.64
76794;BME280;65745;50.278;18.192;2023-11-19T02:45:49;100008.62;;;-1.03;93.68
76794;BME280;65745;50.278;18.192;2023-11-19T02:48:21;100000.19;;;-1.02;93.15
76794;BME280;65745;50.278;18.192;2023-11-19T02:50:53;100005.98;;;-1.09;93.33
76794;BME280;65745;50.278;18.192;2023-11-19T02:53:25;100009.30;;;-1.13;93.64
76794;BME280;65745;50.278;18.192;2023-11-19T02:55:59;100004.42;;;-1.15;93.94
76794;BME280;65745;50.278;18.192;2023-11-19T02:58:40;100004.58;;;-1.12;93.63
76794;BME280;65745;50.278;18.192;2023-11-19T03:01:13;99997.77;;;-1.11;93.07
76794;BME280;65745;50.278;18.192;2023-11-19T03:03:54;99991.38;;;-1.13;93.21
76794;BME280;65745;50.278;18.192;2023-11-19T03:06:28;99980.46;;;-1.14;93.51
76794;BME280;65745;50.278;18.192;2023-11-19T03:09:01;99976.04;;;-1.15;93.62
76794;BME280;65745;50.278;18.192;2023-11-19T03:11:37;99968.34;;;-1.11;93.30
76794;BME280;65745;50.278;18.192;2023-11-19T03:14:09;99966.43;;;-1.09;93.43
76794;BME280;65745;50.278;18.192;2023-11-19T03:16:41;99973.83;;;-1.07;93.33
76794;BME280;65745;50.278;18.192;2023-11-19T03:19:17;99968.31;;;-1.09;93.81
76794;BME280;65745;50.278;18.192;2023-11-19T03:21:52;99958.36;;;-1.09;93.67
76794;BME280;65745;50.278;18.192;2023-11-19T03:24:25;99954.31;;;-1.06;93.83
76794;BME280;65745;50.278;18.192;2023-11-19T03:26:57;99954.38;;;-1.05;93.97
76794;BME280;65745;50.278;18.192;2023-11-19T03:29:28;99958.13;;;-1.07;94.63
76794;BME280;65745;50.278;18.192;2023-11-19T03:32:00;99957.07;;;-1.06;95.06
76794;BME280;65745;50.278;18.192;2023-11-19T03:34:32;99957.59;;;-1.03;94.78
76794;BME280;65745;50.278;18.192;2023-11-19T03:37:05;99941.25;;;-0.99;94.97
76794;BME280;65745;50.278;18.192;2023-11-19T03:39:37;99928.58;;;-0.99;95.06
76794;BME280;65745;50.278;18.192;2023-11-19T03:42:09;99928.43;;;-0.96;94.72
76794;BME280;65745;50.278;18.192;2023-11-19T03:44:42;99929.80;;;-0.94;94.59
76794;BME280;65745;50.278;18.192;2023-11-19T03:47:14;99928.58;;;-0.94;94.85
76794;BME280;65745;50.278;18.192;2023-11-19T03:49:50;99922.44;;;-0.89;94.28
76794;BME280;65745;50.278;18.192;2023-11-19T03:52:22;99915.96;;;-0.85;93.96
76794;BME280;65745;50.278;18.192;2023-11-19T03:54:54;99913.94;;;-0.85;94.14
76794;BME280;65745;50.278;18.192;2023-11-19T03:57:28;99913.12;;;-0.85;94.41
76794;BME280;65745;50.278;18.192;2023-11-19T04:00:00;99910.15;;;-0.84;94.32
76794;BME280;65745;50.278;18.192;2023-11-19T04:02:42;99911.56;;;-0.78;94.27
76794;BME280;65745;50.278;18.192;2023-11-19T04:05:14;99916.97;;;-0.72;94.27
76794;BME280;65745;50.278;18.192;2023-11-19T04:07:46;99935.58;;;-0.70;94.07
76794;BME280;65745;50.278;18.192;2023-11-19T04:10:18;99946.27;;;-0.61;93.48
76794;BME280;65745;50.278;18.192;2023-11-19T04:12:51;99941.08;;;-0.53;93.08
76794;BME280;65745;50.278;18.192;2023-11-19T04:15:23;99938.48;;;-0.46;92.91
76794;BME280;65745;50.278;18.192;2023-11-19T04:17:55;99924.08;;;-0.40;92.65
76794;BME280;65745;50.278;18.192;2023-11-19T04:20:28;99903.23;;;-0.35;92.81
76794;BME280;65745;50.278;18.192;2023-11-19T04:23:00;99888.73;;;-0.40;92.63
76794;BME280;65745;50.278;18.192;2023-11-19T04:25:32;99880.45;;;-0.46;92.88
76794;BME280;65745;50.278;18.192;2023-11-19T04:28:04;99872.53;;;-0.48;93.02
76794;BME280;65745;50.278;18.192;2023-11-19T04:30:36;99866.74;;;-0.49;93.36
76794;BME280;65745;50.278;18.192;2023-11-19T04:33:09;99850.33;;;-0.43;93.42
76794;BME280;65745;50.278;18.192;2023-11-19T04:35:41;99840.08;;;-0.48;93.72
76794;BME280;65745;50.278;18.192;2023-11-19T04:38:13;99835.27;;;-0.49;93.64
76794;BME280;65745;50.278;18.192;2023-11-19T04:40:45;99834.91;;;-0.46;93.64
76794;BME280;65745;50.278;18.192;2023-11-19T04:43:17;99840.19;;;-0.46;93.37
76794;BME280;65745;50.278;18.192;2023-11-19T04:45:51;99838.52;;;-0.46;93.55
76794;BME280;65745;50.278;18.192;2023-11-19T04:48:23;99838.20;;;-0.48;93.65
76794;BME280;65745;50.278;18.192;2023-11-19T04:50:55;99835.41;;;-0.47;93.63
76794;BME280;65745;50.278;18.192;2023-11-19T04:53:27;99828.96;;;-0.47;93.68
76794;BME280;65745;50.278;18.192;2023-11-19T04:55:59;99826.95;;;-0.47;93.64
76794;BME280;65745;50.278;18.192;2023-11-19T04:58:31;99827.67;;;-0.46;94.17
76794;BME280;65745;50.278;18.192;2023-11-19T05:01:05;99825.48;;;-0.40;93.93
76794;BME280;65745;50.278;18.192;2023-11-19T05:03:37;99821.27;;;-0.37;94.09
76794;BME280;65745;50.278;18.192;2023-11-19T05:06:10;99813.78;;;-0.29;94.14
76794;BME280;65745;50.278;18.192;2023-11-19T05:08:42;99809.42;;;-0.23;93.76
76794;BME280;65745;50.278;18.192;2023-11-19T05:11:14;99808.90;;;-0.20;93.72
76794;BME280;65745;50.278;18.192;2023-11-19T05:13:48;99809.84;;;-0.19;93.90
76794;BME280;65745;50.278;18.192;2023-11-19T05:16:20;99811.95;;;-0.15;93.91
76794;BME280;65745;50.278;18.192;2023-11-19T05:18:52;99797.43;;;-0.09;93.70
76794;BME280;65745;50.278;18.192;2023-11-19T05:21:27;99779.88;;;-0.08;93.82
76794;BME280;65745;50.278;18.192;2023-11-19T05:24:00;99770.77;;;-0.10;93.91
76794;BME280;65745;50.278;18.192;2023-11-19T05:26:32;99763.63;;;-0.14;94.33
76794;BME280;65745;50.278;18.192;2023-11-19T05:29:04;99769.10;;;-0.13;93.85
76794;BME280;65745;50.278;18.192;2023-11-19T05:31:36;99777.07;;;-0.07;93.93
76794;BME280;65745;50.278;18.192;2023-11-19T05:34:09;99782.58;;;-0.06;93.90
76794;BME280;65745;50.278;18.192;2023-11-19T05:36:42;99788.09;;;-0.04;93.71
76794;BME280;65745;50.278;18.192;2023-11-19T05:39:15;99800.20;;;-0.02;93.80
76794;BME280;65745;50.278;18.192;2023-11-19T05:41:50;99809.16;;;0.00;93.61
76794;BME280;65745;50.278;18.192;2023-11-19T05:44:22;99796.61;;;0.06;93.45
76794;BME280;65745;50.278;18.192;2023-11-19T05:46:54;99784.25;;;0.06;93.43
76794;BME280;65745;50.278;18.192;2023-11-19T05:49:26;99771.89;;;0.06;93.75
76794;BME280;65745;50.278;18.192;2023-11-19T05:51:58;99753.99;;;0.07;93.43
76794;BME280;65745;50.278;18.192;2023-11-19T05:54:32;99750.17;;;0.08;93.67
76794;BME280;65745;50.278;18.192;2023-11-19T05:57:08;99745.38;;;0.10;93.86
76794;BME280;65745;50.278;18.192;2023-11-19T05:59:41;99736.21;;;0.12;93.82
76794;BME280;65745;50.278;18.192;2023-11-19T06:02:12;99735.81;;;0.11;94.00
76794;BME280;65745;50.278;18.192;2023-11-19T06:04:44;99731.42;;;0.09;94.01
76794;BME280;65745;50.278;18.192;2023-11-19T06:07:18;99728.02;;;0.11;93.84
76794;BME280;65745;50.278;18.192;2023-11-19T06:09:50;99729.58;;;0.12;93.90
76794;BME280;65745;50.278;18.192;2023-11-19T06:12:22;99726.98;;;0.14;93.77
76794;BME280;65745;50.278;18.192;2023-11-19T06:14:54;99719.93;;;0.14;94.01
76794;BME280;65745;50.278;18.192;2023-11-19T06:17:27;99713.25;;;0.16;94.10
76794;BME280;65745;50.278;18.192;2023-11-19T06:19:59;99700.52;;;0.19;93.66
76794;BME280;65745;50.278;18.192;2023-11-19T06:22:31;99692.45;;;0.23;93.73
76794;BME280;65745;50.278;18.192;2023-11-19T06:25:04;99688.52;;;0.22;94.21
76794;BME280;65745;50.278;18.192;2023-11-19T06:27:38;99694.27;;;0.28;94.34
76794;BME280;65745;50.278;18.192;2023-11-19T06:30:12;99703.69;;;0.35;94.44
76794;BME280;65745;50.278;18.192;2023-11-19T06:32:44;99699.48;;;0.42;94.22
76794;BME280;65745;50.278;18.192;2023-11-19T06:35:17;99696.92;;;0.41;94.10
76794;BME280;65745;50.278;18.192;2023-11-19T06:37:49;99690.67;;;0.48;94.18
76794;BME280;65745;50.278;18.192;2023-11-19T06:40:21;99680.62;;;0.53;94.00
76794;BME280;65745;50.278;18.192;2023-11-19T06:42:53;99672.22;;;0.57;93.90
76794;BME280;65745;50.278;18.192;2023-11-19T06:45:26;99670.00;;;0.63;94.38
76794;BME280;65745;50.278;18.192;2023-11-19T06:47:58;99674.67;;;0.68;94.51
76794;BME280;65745;50.278;18.192;2023-11-19T06:50:34;99679.92;;;0.71;93.91
76794;BME280;65745;50.278;18.192;2023-11-19T06:53:06;99673.03;;;0.69;93.38
76794;BME280;65745;50.278;18.192;2023-11-19T06:55:41;99666.90;;;0.71;93.01
76794;BME280;65745;50.278;18.192;2023-11-19T06:58:13;99660.00;;;0.75;93.79
76794;BME280;65745;50.278;18.192;2023-11-19T07:00:45;99653.61;;;0.79;93.38
76794;BME280;65745;50.278;18.192;2023-11-19T07:03:19;99652.70;;;0.81;92.98
76794;BME280;65745;50.278;18.192;2023-11-19T07:05:53;99649.95;;;0.84;92.90
76794;BME280;65745;50.278;18.192;2023-11-19T07:08:28;99654.34;;;0.90;92.72
76794;BME280;65745;50.278;18.192;2023-11-19T07:11:01;99657.43;;;0.94;92.31
76794;BME280;65745;50.278;18.192;2023-11-19T07:13:34;99654.30;;;0.98;92.33
76794;BME280;65745;50.278;18.192;2023-11-19T07:16:08;99663.23;;;1.01;92.63
76794;BME280;65745;50.278;18.192;2023-11-19T07:18:41;99658.49;;;1.07;92.85
76794;BME280;65745;50.278;18.192;2023-11-19T07:21:15;99650.82;;;1.09;93.21
76794;BME280;65745;50.278;18.192;2023-11-19T07:23:47;99632.50;;;1.12;92.70
76794;BME280;65745;50.278;18.192;2023-11-19T07:26:21;99620.56;;;1.11;92.43
76794;BME280;65745;50.278;18.192;2023-11-19T07:28:53;99616.23;;;1.10;91.73
76794;BME280;65745;50.278;18.192;2023-11-19T07:31:26;99615.92;;;1.07;91.78
76794;BME280;65745;50.278;18.192;2023-11-19T07:33:58;99607.44;;;1.07;91.92
76794;BME280;65745;50.278;18.192;2023-11-19T07:36:30;99602.00;;;1.16;92.07
76794;BME280;65745;50.278;18.192;2023-11-19T07:39:02;99604.73;;;1.20;91.97
76794;BME280;65745;50.278;18.192;2023-11-19T07:41:35;99598.73;;;1.25;91.72
76794;BME280;65745;50.278;18.192;2023-11-19T07:44:08;99592.90;;;1.27;91.03
76794;BME280;65745;50.278;18.192;2023-11-19T07:46:42;99586.14;;;1.28;91.01
76794;BME280;65745;50.278;18.192;2023-11-19T07:49:16;99584.13;;;1.28;91.26
76794;BME280;65745;50.278;18.192;2023-11-19T07:51:50;99570.55;;;1.32;91.49
76794;BME280;65745;50.278;18.192;2023-11-19T07:54:22;99569.25;;;1.36;91.34
76794;BME280;65745;50.278;18.192;2023-11-19T07:56:54;99578.92;;;1.39;90.64
76794;BME280;65745;50.278;18.192;2023-11-19T07:59:27;99580.91;;;1.42;90.55
76794;BME280;65745;50.278;18.192;2023-11-19T08:01:59;99579.94;;;1.46;90.98
76794;BME280;65745;50.278;18.192;2023-11-19T08:04:31;99575.45;;;1.54;91.09
76794;BME280;65745;50.278;18.192;2023-11-19T08:07:04;99575.11;;;1.61;91.28
76794;BME280;65745;50.278;18.192;2023-11-19T08:09:37;99557.60;;;1.64;90.76
76794;BME280;65745;50.278;18.192;2023-11-19T08:12:09;99547.03;;;1.66;90.53
76794;BME280;65745;50.278;18.192;2023-11-19T08:14:42;99550.81;;;1.67;89.93
76794;BME280;65745;50.278;18.192;2023-11-19T08:17:15;99556.23;;;1.70;89.78
76794;BME280;65745;50.278;18.192;2023-11-19T08:19:48;99550.98;;;1.71;89.91
76794;BME280;65745;50.278;18.192;2023-11-19T08:22:21;99547.02;;;1.70;90.35
76794;BME280;65745;50.278;18.192;2023-11-19T08:24:53;99551.04;;;1.76;90.27
76794;BME280;65745;50.278;18.192;2023-11-19T08:27:25;99548.49;;;1.79;89.89
76794;BME280;65745;50.278;18.192;2023-11-19T08:29:57;99539.52;;;1.80;89.40
76794;BME280;65745;50.278;18.192;2023-11-19T08:32:30;99554.74;;;1.79;88.89
76794;BME280;65745;50.278;18.192;2023-11-19T08:35:03;99560.12;;;1.81;88.96
76794;BME280;65745;50.278;18.192;2023-11-19T08:37:36;99557.86;;;1.83;89.34
76794;BME280;65745;50.278;18.192;2023-11-19T08:40:11;99545.50;;;1.88;89.49
76794;BME280;65745;50.278;18.192;2023-11-19T08:42:43;99544.32;;;1.95;89.87
76794;BME280;65745;50.278;18.192;2023-11-19T08:45:15;99535.61;;;2.04;89.56
76794;BME280;65745;50.278;18.192;2023-11-19T08:47:47;99527.67;;;2.09;89.03
76794;BME280;65745;50.278;18.192;2023-11-19T08:50:19;99509.43;;;2.11;88.60
76794;BME280;65745;50.278;18.192;2023-11-19T08:52:51;99514.07;;;2.16;88.86
76794;BME280;65745;50.278;18.192;2023-11-19T08:55:23;99526.22;;;2.22;88.88
76794;BME280;65745;50.278;18.192;2023-11-19T08:57:57;99517.55;;;2.32;89.30
76794;BME280;65745;50.278;18.192;2023-11-19T09:00:29;99518.70;;;2.42;89.04
76794;BME280;65745;50.278;18.192;2023-11-19T09:03:03;99516.24;;;2.51;88.81
76794;BME280;65745;50.278;18.192;2023-11-19T09:05:36;99516.23;;;2.59;88.50
76794;BME280;65745;50.278;18.192;2023-11-19T09:08:09;99509.50;;;2.61;87.84
76794;BME280;65745;50.278;18.192;2023-11-19T09:10:42;99495.73;;;2.65;88.30
76794;BME280;65745;50.278;18.192;2023-11-19T09:13:14;99495.84;;;2.74;88.41
76794;BME280;65745;50.278;18.192;2023-11-19T09:15:46;99492.80;;;2.82;88.28
76794;BME280;65745;50.278;18.192;2023-11-19T09:18:19;99486.70;;;2.90;87.83
76794;BME280;65745;50.278;18.192;2023-11-19T09:20:51;99476.45;;;2.94;87.52
76794;BME280;65745;50.278;18.192;2023-11-19T09:23:23;99467.86;;;3.00;87.41
76794;BME280;65745;50.278;18.192;2023-11-19T09:25:58;99467.88;;;3.08;86.71
76794;BME280;65745;50.278;18.192;2023-11-19T09:28:30;99465.77;;;3.10;86.32
76794;BME280;65745;50.278;18.192;2023-11-19T09:31:02;99462.58;;;3.11;86.54
76794;BME280;65745;50.278;18.192;2023-11-19T09:33:35;99459.82;;;3.15;87.32
76794;BME280;65745;50.278;18.192;2023-11-19T09:36:08;99458.47;;;3.19;87.74
76794;BME280;65745;50.278;18.192;2023-11-19T09:38:41;99443.64;;;3.22;87.30
76794;BME280;65745;50.278;18.192;2023-11-19T09:41:13;99439.75;;;3.19;87.39
76794;BME280;65745;50.278;18.192;2023-11-19T09:43:46;99436.08;;;3.17;87.05
76794;BME280;65745;50.278;18.192;2023-11-19T09:46:18;99426.86;;;3.16;87.26
76794;BME280;65745;50.278;18.192;2023-11-19T09:48:53;99419.27;;;3.14;88.05
76794;BME280;65745;50.278;18.192;2023-11-19T09:51:26;99409.93;;;3.10;88.33
76794;BME280;65745;50.278;18.192;2023-11-19T09:53:59;99398.02;;;3.02;88.46
76794;BME280;65745;50.278;18.192;2023-11-19T09:56:32;99395.40;;;2.87;87.90
76794;BME280;65745;50.278;18.192;2023-11-19T09:59:05;99392.56;;;2.69;87.93
76794;BME280;65745;50.278;18.192;2023-11-19T10:01:37;99389.08;;;2.51;88.03
76794;BME280;65745;50.278;18.192;2023-11-19T10:04:11;99391.39;;;2.31;88.59
76794;BME280;65745;50.278;18.192;2023-11-19T10:06:45;99383.65;;;2.13;88.88
76794;BME280;65745;50.278;18.192;2023-11-19T10:09:17;99385.23;;;1.95;89.47
76794;BME280;65745;50.278;18.192;2023-11-19T10:11:50;99377.98;;;1.78;89.98
76794;BME280;65745;50.278;18.192;2023-11-19T10:14:24;99382.45;;;1.72;90.02
76794;BME280;65745;50.278;18.192;2023-11-19T10:16:57;99377.52;;;1.64;90.22
76794;BME280;65745;50.278;18.192;2023-11-19T10:19:29;99381.55;;;1.56;91.19
76794;BME280;65745;50.278;18.192;2023-11-19T10:22:06;99372.13;;;1.54;91.53
76794;BME280;65745;50.278;18.192;2023-11-19T10:24:38;99364.09;;;1.56;92.12
76794;BME280;65745;50.278;18.192;2023-11-19T10:27:19;99353.08;;;1.57;92.11
76794;BME280;65745;50.278;18.192;2023-11-19T10:29:51;99335.23;;;1.56;91.69
76794;BME280;65745;50.278;18.192;2023-11-19T10:32:24;99330.59;;;1.51;91.51
76794;BME280;65745;50.278;18.192;2023-11-19T10:35:07;99327.30;;;1.50;91.72
76794;BME280;65745;50.278;18.192;2023-11-19T10:37:43;99326.20;;;1.48;92.34
76794;BME280;65745;50.278;18.192;2023-11-19T10:40:16;99321.79;;;1.48;92.70
76794;BME280;65745;50.278;18.192;2023-11-19T10:42:49;99313.89;;;1.50;92.98
76794;BME280;65745;50.278;18.192;2023-11-19T10:45:34;99311.98;;;1.49;92.92
76794;BME280;65745;50.278;18.192;2023-11-19T10:48:07;99311.27;;;1.52;92.76
76794;BME280;65745;50.278;18.192;2023-11-19T10:50:40;99303.02;;;1.54;92.58
76794;BME280;65745;50.278;18.192;2023-11-19T10:53:13;99296.02;;;1.56;92.87
76794;BME280;65745;50.278;18.192;2023-11-19T10:55:48;99294.17;;;1.60;92.62
76794;BME280;65745;50.278;18.192;2023-11-19T10:58:20;99279.37;;;1.63;92.71
76794;BME280;65745;50.278;18.192;2023-11-19T11:00:56;99274.63;;;1.71;92.37
76794;BME280;65745;50.278;18.192;2023-11-19T11:03:35;99265.30;;;1.71;92.49
76794;BME280;65745;50.278;18.192;2023-11-19T11:06:12;99251.64;;;1.73;92.76
76794;BME280;65745;50.278;18.192;2023-11-19T11:08:46;99248.20;;;1.80;92.73
76794;BME280;65745;50.278;18.192;2023-11-19T11:11:18;99246.58;;;1.85;92.71
76794;BME280;65745;50.278;18.192;2023-11-19T11:13:54;99246.30;;;1.91;92.83
76794;BME280;65745;50.278;18.192;2023-11-19T11:16:27;99242.14;;;1.97;92.79
76794;BME280;65745;50.278;18.192;2023-11-19T11:19:03;99233.87;;;2.02;92.90
76794;BME280;65745;50.278;18.192;2023-11-19T11:21:36;99233.02;;;2.09;92.77
76794;BME280;65745;50.278;18.192;2023-11-19T11:24:28;99222.98;;;2.13;92.88
76794;BME280;65745;50.278;18.192;2023-11-19T11:27:28;99226.54;;;2.17;92.99
76794;BME280;65745;50.278;18.192;2023-11-19T11:30:14;99223.52;;;2.26;92.97
76794;BME280;65745;50.278;18.192;2023-11-19T11:32:58;99209.46;;;2.36;93.30
76794;BME280;65745;50.278;18.192;2023-11-19T11:35:44;99200.83;;;2.49;93.27
76794;BME280;65745;50.278;18.192;2023-11-19T11:38:23;99205.80;;;2.58;93.47
76794;BME280;65745;50.278;18.192;2023-11-19T11:41:19;99205.34;;;2.68;93.56
76794;BME280;65745;50.278;18.192;2023-11-19T11:43:52;99212.98;;;2.76;93.31
76794;BME280;65745;50.278;18.192;2023-11-19T11:46:55;99211.95;;;2.85;93.10
76794;BME280;65745;50.278;18.192;2023-11-19T11:49:32;99218.71;;;2.97;93.22
76794;BME280;65745;50.278;18.192;2023-11-19T11:52:06;99210.65;;;3.08;92.82
76794;BME280;65745;50.278;18.192;2023-11-19T11:54:39;99204.10;;;3.15;92.45
76794;BME280;65745;50.278;18.192;2023-11-19T11:57:14;99202.20;;;3.19;92.50
76794;BME280;65745;50.278;18.192;2023-11-19T11:59:51;99196.64;;;3.24;92.37
76794;BME280;65745;50.278;18.192;2023-11-19T12:02:24;99196.16;;;3.34;92.32
76794;BME280;65745;50.278;18.192;2023-11-19T12:04:57;99191.83;;;3.42;92.08
76794;BME280;65745;50.278;18.192;2023-11-19T12:07:31;99185.44;;;3.49;92.13
76794;BME280;65745;50.278;18.192;2023-11-19T12:10:10;99185.90;;;3.52;92.05
76794;BME280;65745;50.278;18.192;2023-11-19T12:12:42;99184.11;;;3.54;92.19
76794;BME280;65745;50.278;18.192;2023-11-19T12:15:15;99180.12;;;3.57;92.12
76794;BME280;65745;50.278;18.192;2023-11-19T12:17:50;99176.48;;;3.60;92.17
76794;BME280;65745;50.278;18.192;2023-11-19T12:20:23;99166.63;;;3.65;92.14
76794;BME280;65745;50.278;18.192;2023-11-19T12:23:05;99158.55;;;3.68;91.97
76794;BME280;65745;50.278;18.192;2023-11-19T12:25:38;99151.17;;;3.71;91.78
76794;BME280;65745;50.278;18.192;2023-11-19T12:28:14;99156.80;;;3.71;91.53
76794;BME280;65745;50.278;18.192;2023-11-19T12:30:48;99158.84;;;3.71;91.50
76794;BME280;65745;50.278;18.192;2023-11-19T12:33:20;99154.94;;;3.67;91.49
76794;BME280;65745;50.278;18.192;2023-11-19T12:35:52;99148.23;;;3.65;91.65
76794;BME280;65745;50.278;18.192;2023-11-19T12:38:25;99145.61;;;3.68;91.93
76794;BME280;65745;50.278;18.192;2023-11-19T12:41:08;99143.34;;;3.71;91.70
76794;BME280;65745;50.278;18.192;2023-11-19T12:43:42;99124.31;;;3.72;91.72
76794;BME280;65745;50.278;18.192;2023-11-19T12:46:20;99115.77;;;3.76;91.72
76794;BME280;65745;50.278;18.192;2023-11-19T12:48:54;99114.20;;;3.80;91.37
76794;BME280;65745;50.278;18.192;2023-11-19T12:51:32;99113.45;;;3.83;90.90
76794;BME280;65745;50.278;18.192;2023-11-19T12:54:05;99113.33;;;3.85;90.84
76794;BME280;65745;50.278;18.192;2023-11-19T12:56:37;99112.61;;;3.89;90.98
76794;BME280;65745;50.278;18.192;2023-11-19T12:59:14;99104.10;;;3.94;90.65
76794;BME280;65745;50.278;18.192;2023-11-19T13:01:56;99103.46;;;3.96;90.57
76794;BME280;65745;50.278;18.192;2023-11-19T13:04:31;99101.32;;;3.98;90.72
76794;BME280;65745;50.278;18.192;2023-11-19T13:07:03;99091.11;;;4.04;90.82
76794;BME280;65745;50.278;18.192;2023-11-19T13:09:36;99083.40;;;4.07;90.10
76794;BME280;65745;50.278;18.192;2023-11-19T13:12:15;99079.58;;;4.10;89.93
76794;BME280;65745;50.278;18.192;2023-11-19T13:14:47;99080.27;;;4.11;89.33
76794;BME280;65745;50.278;18.192;2023-11-19T13:17:20;99084.16;;;4.10;89.52
76794;BME280;65745;50.278;18.192;2023-11-19T13:19:53;99075.52;;;4.11;89.55
76794;BME280;65745;50.278;18.192;2023-11-19T13:22:27;99077.23;;;4.12;89.62
76794;BME280;65745;50.278;18.192;2023-11-19T13:24:59;99078.17;;;4.14;89.62
76794;BME280;65745;50.278;18.192;2023-11-19T13:27:31;99070.77;;;4.17;89.45